sensor_id;sensor_type;location;lat;lon;timestamp;P1;durP1;ratioP1;P2;durP2;ratioP2
56242;SDS011;42155;53.096;23.226;2024-03-22T00:01:32;32.95;;;14.05;;
56242;SDS011;42155;53.096;23.226;2024-03-22T00:03:32;27.25;;;14.00;;
56242;SDS011;42155;53.096;23.226;2024-03-22T00:05:32;30.10;;;14.55;;
56242;SDS011;42155;53.096;23.226;2024-03-22T00:07:33;31.23;;;14.02;;
56242;SDS011;42155;53.096;23.226;2024-03-22T00:09:33;29.70;;;14.07;;
56242;SDS011;42155;53.096;23.226;2024-03-22T00:11:33;29.95;;;14.20;;
56242;SDS011;42155;53.096;23.226;2024-03-22T00:13:34;31.05;;;14.35;;
56242;SDS011;42155;53.096;23.226;2024-03-22T00:15:34;36.40;;;16.38;;
56242;SDS011;42155;53.096;23.226;2024-03-22T00:17:35;30.95;;;14.52;;
56242;SDS011;42155;53.096;23.226;2024-03-22T00:19:35;30.65;;;15.38;;
56242;SDS011;42155;53.096;23.226;2024-03-22T00:21:35;29.83;;;14.70;;
56242;SDS011;42155;53.096;23.226;2024-03-22T00:23:36;29.23;;;14.65;;
56242;SDS011;42155;53.096;23.226;2024-03-22T00:25:36;31.27;;;14.20;;
56242;SDS011;42155;53.096;23.226;2024-03-22T00:27:36;33.67;;;14.70;;
56242;SDS011;42155;53.096;23.226;2024-03-22T00:29:37;26.67;;;14.45;;
56242;SDS011;42155;53.096;23.226;2024-03-22T00:31:37;31.92;;;14.27;;
56242;SDS011;42155;53.096;23.226;2024-03-22T00:33:37;30.23;;;14.40;;
56242;SDS011;42155;53.096;23.226;2024-03-22T00:35:38;32.28;;;14.90;;
56242;SDS011;42155;53.096;23.226;2024-03-22T00:37:38;30.25;;;14.98;;
56242;SDS011;42155;53.096;23.226;2024-03-22T00:39:38;34.55;;;15.63;;
56242;SDS011;42155;53.096;23.226;2024-03-22T00:41:39;26.67;;;14.90;;
56242;SDS011;42155;53.096;23.226;2024-03-22T00:43:39;32.65;;;16.17;;
56242;SDS011;42155;53.096;23.226;2024-03-22T00:45:40;29.85;;;14.90;;
56242;SDS011;42155;53.096;23.226;2024-03-22T00:47:40;32.83;;;14.70;;
56242;SDS011;42155;53.096;23.226;2024-03-22T00:49:40;33.85;;;14.57;;
56242;SDS011;42155;53.096;23.226;2024-03-22T00:51:41;36.20;;;15.65;;
56242;SDS011;42155;53.096;23.226;2024-03-22T00:53:41;37.53;;;15.63;;
56242;SDS011;42155;53.096;23.226;2024-03-22T00:55:41;28.85;;;14.48;;
56242;SDS011;42155;53.096;23.226;2024-03-22T00:57:42;32.72;;;15.00;;
56242;SDS011;42155;53.096;23.226;2024-03-22T00:59:42;34.53;;;16.55;;
56242;SDS011;42155;53.096;23.226;2024-03-22T01:01:42;33.80;;;16.63;;
56242;SDS011;42155;53.096;23.226;2024-03-22T01:03:43;34.63;;;16.00;;
56242;SDS011;42155;53.096;23.226;2024-03-22T01:05:43;33.80;;;16.05;;
56242;SDS011;42155;53.096;23.226;2024-03-22T01:07:43;36.33;;;15.63;;
56242;SDS011;42155;53.096;23.226;2024-03-22T01:09:44;36.30;;;16.35;;
56242;SDS011;42155;53.096;23.226;2024-03-22T01:11:44;31.42;;;15.45;;
56242;SDS011;42155;53.096;23.226;2024-03-22T01:13:44;31.98;;;16.08;;
56242;SDS011;42155;53.096;23.226;2024-03-22T01:15:45;31.42;;;16.73;;
56242;SDS011;42155;53.096;23.226;2024-03-22T01:17:45;34.03;;;16.85;;
56242;SDS011;42155;53.096;23.226;2024-03-22T01:19:45;34.53;;;16.05;;
56242;SDS011;42155;53.096;23.226;2024-03-22T01:21:46;31.63;;;15.80;;
56242;SDS011;42155;53.096;23.226;2024-03-22T01:23:46;33.33;;;15.80;;
56242;SDS011;42155;53.096;23.226;2024-03-22T01:25:47;32.00;;;16.13;;
56242;SDS011;42155;53.096;23.226;2024-03-22T01:27:47;39.47;;;16.90;;
56242;SDS011;42155;53.096;23.226;2024-03-22T01:29:47;37.60;;;17.02;;
56242;SDS011;42155;53.096;23.226;2024-03-22T01:31:48;35.25;;;15.45;;
56242;SDS011;42155;53.096;23.226;2024-03-22T01:33:48;31.42;;;16.17;;
56242;SDS011;42155;53.096;23.226;2024-03-22T01:35:48;32.92;;;15.82;;
56242;SDS011;42155;53.096;23.226;2024-03-22T01:37:49;35.47;;;17.55;;
56242;SDS011;42155;53.096;23.226;2024-03-22T01:39:49;33.80;;;17.45;;
56242;SDS011;42155;53.096;23.226;2024-03-22T01:41:52;38.80;;;17.13;;
56242;SDS011;42155;53.096;23.226;2024-03-22T01:43:52;35.42;;;16.55;;
56242;SDS011;42155;53.096;23.226;2024-03-22T01:45:53;37.97;;;17.95;;
56242;SDS011;42155;53.096;23.226;2024-03-22T01:47:54;39.70;;;19.20;;
56242;SDS011;42155;53.096;23.226;2024-03-22T01:49:55;32.38;;;16.48;;
56242;SDS011;42155;53.096;23.226;2024-03-22T01:51:55;36.30;;;17.83;;
56242;SDS011;42155;53.096;23.226;2024-03-22T01:53:56;35.05;;;16.85;;
56242;SDS011;42155;53.096;23.226;2024-03-22T01:55:59;38.00;;;17.45;;
56242;SDS011;42155;53.096;23.226;2024-03-22T01:58:00;40.42;;;18.55;;
56242;SDS011;42155;53.096;23.226;2024-03-22T02:00:00;37.80;;;19.40;;
56242;SDS011;42155;53.096;23.226;2024-03-22T02:02:01;34.47;;;17.33;;
56242;SDS011;42155;53.096;23.226;2024-03-22T02:04:01;34.72;;;17.88;;
56242;SDS011;42155;53.096;23.226;2024-03-22T02:06:02;38.00;;;19.50;;
56242;SDS011;42155;53.096;23.226;2024-03-22T02:08:02;37.45;;;18.58;;
56242;SDS011;42155;53.096;23.226;2024-03-22T02:10:03;41.53;;;18.33;;
56242;SDS011;42155;53.096;23.226;2024-03-22T02:12:04;41.35;;;18.08;;
56242;SDS011;42155;53.096;23.226;2024-03-22T02:14:04;36.90;;;17.92;;
56242;SDS011;42155;53.096;23.226;2024-03-22T02:16:05;38.33;;;18.65;;
56242;SDS011;42155;53.096;23.226;2024-03-22T02:18:05;37.85;;;19.10;;
56242;SDS011;42155;53.096;23.226;2024-03-22T02:20:06;38.88;;;18.00;;
56242;SDS011;42155;53.096;23.226;2024-03-22T02:22:06;42.92;;;19.17;;
56242;SDS011;42155;53.096;23.226;2024-03-22T02:24:07;40.20;;;19.30;;
56242;SDS011;42155;53.096;23.226;2024-03-22T02:26:07;38.05;;;18.52;;
56242;SDS011;42155;53.096;23.226;2024-03-22T02:28:08;39.83;;;18.05;;
56242;SDS011;42155;53.096;23.226;2024-03-22T02:30:08;37.20;;;17.45;;
56242;SDS011;42155;53.096;23.226;2024-03-22T02:32:09;38.38;;;17.65;;
56242;SDS011;42155;53.096;23.226;2024-03-22T02:34:09;43.13;;;18.85;;
56242;SDS011;42155;53.096;23.226;2024-03-22T02:36:10;37.70;;;17.98;;
56242;SDS011;42155;53.096;23.226;2024-03-22T02:38:10;40.33;;;18.02;;
56242;SDS011;42155;53.096;23.226;2024-03-22T02:40:11;36.15;;;17.17;;
56242;SDS011;42155;53.096;23.226;2024-03-22T02:42:11;37.78;;;18.50;;
56242;SDS011;42155;53.096;23.226;2024-03-22T02:44:12;36.92;;;18.15;;
56242;SDS011;42155;53.096;23.226;2024-03-22T02:46:12;38.97;;;19.08;;
56242;SDS011;42155;53.096;23.226;2024-03-22T02:48:12;39.70;;;19.52;;
56242;SDS011;42155;53.096;23.226;2024-03-22T02:50:13;38.30;;;18.17;;
56242;SDS011;42155;53.096;23.226;2024-03-22T02:52:13;36.10;;;17.90;;
56242;SDS011;42155;53.096;23.226;2024-03-22T02:54:14;41.45;;;18.55;;
56242;SDS011;42155;53.096;23.226;2024-03-22T02:56:14;41.50;;;18.63;;
56242;SDS011;42155;53.096;23.226;2024-03-22T02:58:14;37.70;;;19.00;;
56242;SDS011;42155;53.096;23.226;2024-03-22T03:00:15;41.28;;;19.20;;
56242;SDS011;42155;53.096;23.226;2024-03-22T03:02:15;42.25;;;18.42;;
56242;SDS011;42155;53.096;23.226;2024-03-22T03:04:15;39.22;;;17.95;;
56242;SDS011;42155;53.096;23.226;2024-03-22T03:06:16;37.70;;;18.85;;
56242;SDS011;42155;53.096;23.226;2024-03-22T03:08:16;45.67;;;19.88;;
56242;SDS011;42155;53.096;23.226;2024-03-22T03:10:16;37.17;;;18.90;;
56242;SDS011;42155;53.096;23.226;2024-03-22T03:12:17;40.80;;;19.50;;
56242;SDS011;42155;53.096;23.226;2024-03-22T03:14:17;40.70;;;19.83;;
56242;SDS011;42155;53.096;23.226;2024-03-22T03:16:17;42.25;;;20.05;;
56242;SDS011;42155;53.096;23.226;2024-03-22T03:18:18;34.78;;;17.88;;
56242;SDS011;42155;53.096;23.226;2024-03-22T03:20:18;41.70;;;19.27;;
56242;SDS011;42155;53.096;23.226;2024-03-22T03:22:18;36.60;;;18.75;;
56242;SDS011;42155;53.096;23.226;2024-03-22T03:24:19;41.08;;;19.25;;
56242;SDS011;42155;53.096;23.226;2024-03-22T03:26:19;45.33;;;19.02;;
56242;SDS011;42155;53.096;23.226;2024-03-22T03:28:19;43.22;;;20.05;;
56242;SDS011;42155;53.096;23.226;2024-03-22T03:30:20;40.45;;;18.38;;
56242;SDS011;42155;53.096;23.226;2024-03-22T03:32:20;37.78;;;18.90;;
56242;SDS011;42155;53.096;23.226;2024-03-22T03:34:21;39.92;;;19.73;;
56242;SDS011;42155;53.096;23.226;2024-03-22T03:36:21;42.00;;;19.20;;
56242;SDS011;42155;53.096;23.226;2024-03-22T03:38:21;43.13;;;20.00;;
56242;SDS011;42155;53.096;23.226;2024-03-22T03:40:22;41.00;;;19.55;;
56242;SDS011;42155;53.096;23.226;2024-03-22T03:42:22;39.25;;;19.10;;
56242;SDS011;42155;53.096;23.226;2024-03-22T03:44:22;45.70;;;20.08;;
56242;SDS011;42155;53.096;23.226;2024-03-22T03:46:23;43.67;;;21.20;;
56242;SDS011;42155;53.096;23.226;2024-03-22T03:48:23;45.28;;;20.65;;
56242;SDS011;42155;53.096;23.226;2024-03-22T03:50:23;46.58;;;20.17;;
56242;SDS011;42155;53.096;23.226;2024-03-22T03:52:24;41.58;;;20.17;;
56242;SDS011;42155;53.096;23.226;2024-03-22T03:54:24;43.13;;;21.23;;
56242;SDS011;42155;53.096;23.226;2024-03-22T03:56:24;42.45;;;20.88;;
56242;SDS011;42155;53.096;23.226;2024-03-22T03:58:25;45.40;;;21.30;;
56242;SDS011;42155;53.096;23.226;2024-03-22T04:00:25;41.63;;;20.27;;
56242;SDS011;42155;53.096;23.226;2024-03-22T04:02:25;43.28;;;20.45;;
56242;SDS011;42155;53.096;23.226;2024-03-22T04:04:26;41.55;;;20.05;;
56242;SDS011;42155;53.096;23.226;2024-03-22T04:06:26;43.75;;;21.27;;
56242;SDS011;42155;53.096;23.226;2024-03-22T04:08:27;46.35;;;19.90;;
56242;SDS011;42155;53.096;23.226;2024-03-22T04:10:27;46.47;;;20.98;;
56242;SDS011;42155;53.096;23.226;2024-03-22T04:12:28;47.00;;;20.98;;
56242;SDS011;42155;53.096;23.226;2024-03-22T04:14:28;47.63;;;22.35;;
56242;SDS011;42155;53.096;23.226;2024-03-22T04:16:29;48.55;;;21.65;;
56242;SDS011;42155;53.096;23.226;2024-03-22T04:18:29;48.40;;;20.35;;
56242;SDS011;42155;53.096;23.226;2024-03-22T04:20:29;45.28;;;21.23;;
56242;SDS011;42155;53.096;23.226;2024-03-22T04:22:30;48.17;;;21.55;;
56242;SDS011;42155;53.096;23.226;2024-03-22T04:24:30;47.47;;;21.10;;
56242;SDS011;42155;53.096;23.226;2024-03-22T04:26:31;45.67;;;20.65;;
56242;SDS011;42155;53.096;23.226;2024-03-22T04:28:31;44.88;;;20.65;;
56242;SDS011;42155;53.096;23.226;2024-03-22T04:30:32;49.22;;;21.73;;
56242;SDS011;42155;53.096;23.226;2024-03-22T04:32:32;48.72;;;22.55;;
56242;SDS011;42155;53.096;23.226;2024-03-22T04:34:32;49.50;;;21.80;;
56242;SDS011;42155;53.096;23.226;2024-03-22T04:36:33;54.85;;;23.27;;
56242;SDS011;42155;53.096;23.226;2024-03-22T04:38:33;48.58;;;21.92;;
56242;SDS011;42155;53.096;23.226;2024-03-22T04:40:34;52.03;;;23.58;;
56242;SDS011;42155;53.096;23.226;2024-03-22T04:42:34;56.78;;;23.58;;
56242;SDS011;42155;53.096;23.226;2024-03-22T04:44:35;55.53;;;24.30;;
56242;SDS011;42155;53.096;23.226;2024-03-22T04:46:35;54.90;;;23.80;;
56242;SDS011;42155;53.096;23.226;2024-03-22T04:48:35;52.50;;;23.17;;
56242;SDS011;42155;53.096;23.226;2024-03-22T04:50:36;55.80;;;23.08;;
56242;SDS011;42155;53.096;23.226;2024-03-22T04:52:36;54.47;;;23.70;;
56242;SDS011;42155;53.096;23.226;2024-03-22T04:54:36;52.13;;;22.17;;
56242;SDS011;42155;53.096;23.226;2024-03-22T04:56:37;50.58;;;22.73;;
56242;SDS011;42155;53.096;23.226;2024-03-22T04:58:39;54.08;;;24.02;;
56242;SDS011;42155;53.096;23.226;2024-03-22T05:00:39;57.67;;;24.10;;
56242;SDS011;42155;53.096;23.226;2024-03-22T05:02:40;62.60;;;23.60;;
56242;SDS011;42155;53.096;23.226;2024-03-22T05:04:40;48.53;;;22.65;;
56242;SDS011;42155;53.096;23.226;2024-03-22T05:06:41;51.20;;;22.45;;
56242;SDS011;42155;53.096;23.226;2024-03-22T05:08:41;48.45;;;20.70;;
56242;SDS011;42155;53.096;23.226;2024-03-22T05:10:41;57.15;;;24.00;;
56242;SDS011;42155;53.096;23.226;2024-03-22T05:12:42;51.35;;;22.35;;
56242;SDS011;42155;53.096;23.226;2024-03-22T05:14:42;55.05;;;23.38;;
56242;SDS011;42155;53.096;23.226;2024-03-22T05:16:43;58.03;;;23.70;;
56242;SDS011;42155;53.096;23.226;2024-03-22T05:18:43;57.33;;;23.45;;
56242;SDS011;42155;53.096;23.226;2024-03-22T05:20:44;51.50;;;22.95;;
56242;SDS011;42155;53.096;23.226;2024-03-22T05:22:44;57.17;;;22.98;;
56242;SDS011;42155;53.096;23.226;2024-03-22T05:24:44;55.45;;;22.55;;
56242;SDS011;42155;53.096;23.226;2024-03-22T05:26:45;54.85;;;23.00;;
56242;SDS011;42155;53.096;23.226;2024-03-22T05:28:45;51.58;;;22.77;;
56242;SDS011;42155;53.096;23.226;2024-03-22T05:30:46;55.20;;;22.88;;
56242;SDS011;42155;53.096;23.226;2024-03-22T05:32:47;51.00;;;22.92;;
56242;SDS011;42155;53.096;23.226;2024-03-22T05:34:47;56.25;;;23.40;;
56242;SDS011;42155;53.096;23.226;2024-03-22T05:36:48;62.28;;;25.15;;
56242;SDS011;42155;53.096;23.226;2024-03-22T05:38:48;51.70;;;22.33;;
56242;SDS011;42155;53.096;23.226;2024-03-22T05:40:49;54.45;;;22.80;;
56242;SDS011;42155;53.096;23.226;2024-03-22T05:42:49;62.08;;;25.25;;
56242;SDS011;42155;53.096;23.226;2024-03-22T05:44:49;65.68;;;26.23;;
56242;SDS011;42155;53.096;23.226;2024-03-22T05:46:50;68.85;;;28.10;;
56242;SDS011;42155;53.096;23.226;2024-03-22T05:48:50;69.47;;;28.50;;
56242;SDS011;42155;53.096;23.226;2024-03-22T05:50:50;64.40;;;27.65;;
56242;SDS011;42155;53.096;23.226;2024-03-22T05:52:51;77.28;;;29.85;;
56242;SDS011;42155;53.096;23.226;2024-03-22T05:54:51;67.85;;;28.15;;
56242;SDS011;42155;53.096;23.226;2024-03-22T05:56:51;70.68;;;28.38;;
56242;SDS011;42155;53.096;23.226;2024-03-22T05:58:52;76.28;;;30.83;;
56242;SDS011;42155;53.096;23.226;2024-03-22T06:00:52;84.35;;;34.10;;
56242;SDS011;42155;53.096;23.226;2024-03-22T06:02:52;87.53;;;35.13;;
56242;SDS011;42155;53.096;23.226;2024-03-22T06:04:53;80.60;;;32.95;;
56242;SDS011;42155;53.096;23.226;2024-03-22T06:06:53;76.18;;;30.00;;
56242;SDS011;42155;53.096;23.226;2024-03-22T06:08:54;71.03;;;28.13;;
56242;SDS011;42155;53.096;23.226;2024-03-22T06:10:54;71.97;;;29.35;;
56242;SDS011;42155;53.096;23.226;2024-03-22T06:12:55;68.88;;;28.85;;
56242;SDS011;42155;53.096;23.226;2024-03-22T06:14:55;76.95;;;30.83;;
56242;SDS011;42155;53.096;23.226;2024-03-22T06:16:56;67.47;;;28.00;;
56242;SDS011;42155;53.096;23.226;2024-03-22T06:18:56;67.53;;;26.83;;
56242;SDS011;42155;53.096;23.226;2024-03-22T06:20:57;60.65;;;25.38;;
56242;SDS011;42155;53.096;23.226;2024-03-22T06:22:57;66.30;;;26.75;;
56242;SDS011;42155;53.096;23.226;2024-03-22T06:24:57;67.32;;;27.15;;
56242;SDS011;42155;53.096;23.226;2024-03-22T06:26:58;64.95;;;26.45;;
56242;SDS011;42155;53.096;23.226;2024-03-22T06:28:58;62.65;;;26.63;;
56242;SDS011;42155;53.096;23.226;2024-03-22T06:30:59;64.07;;;28.15;;
56242;SDS011;42155;53.096;23.226;2024-03-22T06:32:59;73.93;;;31.55;;
56242;SDS011;42155;53.096;23.226;2024-03-22T06:34:59;74.45;;;31.35;;
56242;SDS011;42155;53.096;23.226;2024-03-22T06:37:00;77.75;;;32.97;;
56242;SDS011;42155;53.096;23.226;2024-03-22T06:39:00;79.05;;;32.03;;
56242;SDS011;42155;53.096;23.226;2024-03-22T06:41:00;77.10;;;31.40;;
56242;SDS011;42155;53.096;23.226;2024-03-22T06:43:01;85.28;;;34.63;;
56242;SDS011;42155;53.096;23.226;2024-03-22T06:45:02;73.22;;;30.45;;
56242;SDS011;42155;53.096;23.226;2024-03-22T06:47:03;66.30;;;28.42;;
56242;SDS011;42155;53.096;23.226;2024-03-22T06:49:03;71.35;;;28.90;;
56242;SDS011;42155;53.096;23.226;2024-03-22T06:51:03;69.07;;;28.45;;
56242;SDS011;42155;53.096;23.226;2024-03-22T06:53:04;69.80;;;29.58;;
56242;SDS011;42155;53.096;23.226;2024-03-22T06:55:05;69.38;;;29.90;;
56242;SDS011;42155;53.096;23.226;2024-03-22T06:57:05;74.07;;;28.45;;
56242;SDS011;42155;53.096;23.226;2024-03-22T06:59:06;72.75;;;30.23;;
56242;SDS011;42155;53.096;23.226;2024-03-22T07:01:06;74.70;;;30.67;;
56242;SDS011;42155;53.096;23.226;2024-03-22T07:03:07;67.80;;;28.35;;
56242;SDS011;42155;53.096;23.226;2024-03-22T07:05:07;72.18;;;29.75;;
56242;SDS011;42155;53.096;23.226;2024-03-22T07:07:09;67.50;;;26.25;;
56242;SDS011;42155;53.096;23.226;2024-03-22T07:09:09;67.05;;;27.80;;
56242;SDS011;42155;53.096;23.226;2024-03-22T07:11:09;69.78;;;26.90;;
56242;SDS011;42155;53.096;23.226;2024-03-22T07:13:10;69.13;;;28.63;;
56242;SDS011;42155;53.096;23.226;2024-03-22T07:15:10;73.93;;;27.55;;
56242;SDS011;42155;53.096;23.226;2024-03-22T07:17:10;69.93;;;26.42;;
56242;SDS011;42155;53.096;23.226;2024-03-22T07:19:11;68.85;;;25.75;;
56242;SDS011;42155;53.096;23.226;2024-03-22T07:21:11;79.20;;;28.02;;
56242;SDS011;42155;53.096;23.226;2024-03-22T07:23:12;76.10;;;26.15;;
56242;SDS011;42155;53.096;23.226;2024-03-22T07:25:12;78.25;;;26.88;;
56242;SDS011;42155;53.096;23.226;2024-03-22T07:27:13;73.95;;;25.40;;
56242;SDS011;42155;53.096;23.226;2024-03-22T07:29:14;76.43;;;27.30;;
56242;SDS011;42155;53.096;23.226;2024-03-22T07:31:14;75.20;;;26.48;;
56242;SDS011;42155;53.096;23.226;2024-03-22T07:33:14;68.38;;;25.70;;
56242;SDS011;42155;53.096;23.226;2024-03-22T07:35:15;74.70;;;26.73;;
56242;SDS011;42155;53.096;23.226;2024-03-22T07:37:15;70.93;;;25.17;;
56242;SDS011;42155;53.096;23.226;2024-03-22T07:39:15;70.47;;;24.27;;
56242;SDS011;42155;53.096;23.226;2024-03-22T07:41:16;74.30;;;25.17;;
56242;SDS011;42155;53.096;23.226;2024-03-22T07:43:16;74.60;;;24.60;;
56242;SDS011;42155;53.096;23.226;2024-03-22T07:45:16;83.25;;;29.15;;
56242;SDS011;42155;53.096;23.226;2024-03-22T07:47:17;79.35;;;30.15;;
56242;SDS011;42155;53.096;23.226;2024-03-22T07:49:17;78.35;;;26.95;;
56242;SDS011;42155;53.096;23.226;2024-03-22T07:51:18;79.30;;;26.98;;
56242;SDS011;42155;53.096;23.226;2024-03-22T07:53:19;79.20;;;27.02;;
56242;SDS011;42155;53.096;23.226;2024-03-22T07:55:19;79.95;;;26.40;;
56242;SDS011;42155;53.096;23.226;2024-03-22T07:57:19;76.32;;;26.95;;
56242;SDS011;42155;53.096;23.226;2024-03-22T07:59:20;75.57;;;26.77;;
56242;SDS011;42155;53.096;23.226;2024-03-22T08:01:20;78.82;;;26.75;;
56242;SDS011;42155;53.096;23.226;2024-03-22T08:03:21;70.00;;;25.00;;
56242;SDS011;42155;53.096;23.226;2024-03-22T08:05:21;75.05;;;26.15;;
56242;SDS011;42155;53.096;23.226;2024-03-22T08:07:21;70.68;;;25.52;;
56242;SDS011;42155;53.096;23.226;2024-03-22T08:09:22;75.70;;;26.20;;
56242;SDS011;42155;53.096;23.226;2024-03-22T08:11:22;73.10;;;25.40;;
56242;SDS011;42155;53.096;23.226;2024-03-22T08:13:22;78.55;;;27.35;;
56242;SDS011;42155;53.096;23.226;2024-03-22T08:15:23;70.32;;;26.23;;
56242;SDS011;42155;53.096;23.226;2024-03-22T08:17:23;73.47;;;25.85;;
56242;SDS011;42155;53.096;23.226;2024-03-22T08:19:24;72.88;;;25.52;;
56242;SDS011;42155;53.096;23.226;2024-03-22T08:21:24;68.05;;;25.15;;
56242;SDS011;42155;53.096;23.226;2024-03-22T08:23:24;62.60;;;23.15;;
56242;SDS011;42155;53.096;23.226;2024-03-22T08:25:25;65.80;;;23.65;;
56242;SDS011;42155;53.096;23.226;2024-03-22T08:27:25;59.90;;;22.33;;
56242;SDS011;42155;53.096;23.226;2024-03-22T08:29:26;65.13;;;23.48;;
56242;SDS011;42155;53.096;23.226;2024-03-22T08:31:26;55.83;;;21.42;;
56242;SDS011;42155;53.096;23.226;2024-03-22T08:33:26;55.83;;;21.95;;
56242;SDS011;42155;53.096;23.226;2024-03-22T08:35:27;61.35;;;20.40;;
56242;SDS011;42155;53.096;23.226;2024-03-22T08:37:27;54.88;;;20.65;;
56242;SDS011;42155;53.096;23.226;2024-03-22T08:39:27;59.80;;;22.63;;
56242;SDS011;42155;53.096;23.226;2024-03-22T08:41:28;54.53;;;21.38;;
56242;SDS011;42155;53.096;23.226;2024-03-22T08:43:28;52.08;;;20.30;;
56242;SDS011;42155;53.096;23.226;2024-03-22T08:45:29;57.30;;;20.58;;
56242;SDS011;42155;53.096;23.226;2024-03-22T08:47:29;51.40;;;18.95;;
56242;SDS011;42155;53.096;23.226;2024-03-22T08:49:30;52.08;;;20.50;;
56242;SDS011;42155;53.096;23.226;2024-03-22T08:51:30;54.85;;;20.58;;
56242;SDS011;42155;53.096;23.226;2024-03-22T08:53:31;50.60;;;19.80;;
56242;SDS011;42155;53.096;23.226;2024-03-22T08:55:31;49.00;;;19.27;;
56242;SDS011;42155;53.096;23.226;2024-03-22T08:57:32;47.38;;;17.95;;
56242;SDS011;42155;53.096;23.226;2024-03-22T08:59:32;49.63;;;18.98;;
56242;SDS011;42155;53.096;23.226;2024-03-22T09:01:32;54.30;;;19.55;;
56242;SDS011;42155;53.096;23.226;2024-03-22T09:03:33;49.15;;;19.15;;
56242;SDS011;42155;53.096;23.226;2024-03-22T09:05:33;50.53;;;19.40;;
56242;SDS011;42155;53.096;23.226;2024-03-22T09:07:34;48.08;;;18.15;;
56242;SDS011;42155;53.096;23.226;2024-03-22T09:09:35;49.50;;;18.75;;
56242;SDS011;42155;53.096;23.226;2024-03-22T09:11:35;46.67;;;17.63;;
56242;SDS011;42155;53.096;23.226;2024-03-22T09:13:36;48.80;;;18.95;;
56242;SDS011;42155;53.096;23.226;2024-03-22T09:15:36;48.22;;;17.25;;
56242;SDS011;42155;53.096;23.226;2024-03-22T09:17:36;46.90;;;18.10;;
56242;SDS011;42155;53.096;23.226;2024-03-22T09:19:37;47.92;;;18.45;;
56242;SDS011;42155;53.096;23.226;2024-03-22T09:21:37;43.33;;;17.80;;
56242;SDS011;42155;53.096;23.226;2024-03-22T09:23:38;34.78;;;15.65;;
56242;SDS011;42155;53.096;23.226;2024-03-22T09:25:38;39.60;;;15.07;;
56242;SDS011;42155;53.096;23.226;2024-03-22T09:27:38;41.38;;;16.92;;
56242;SDS011;42155;53.096;23.226;2024-03-22T09:29:39;42.50;;;15.32;;
56242;SDS011;42155;53.096;23.226;2024-03-22T09:31:39;37.88;;;15.10;;
56242;SDS011;42155;53.096;23.226;2024-03-22T09:33:39;38.75;;;15.55;;
56242;SDS011;42155;53.096;23.226;2024-03-22T09:35:40;37.40;;;15.35;;
56242;SDS011;42155;53.096;23.226;2024-03-22T09:37:40;37.70;;;15.07;;
56242;SDS011;42155;53.096;23.226;2024-03-22T09:39:41;35.55;;;14.82;;
56242;SDS011;42155;53.096;23.226;2024-03-22T09:41:42;35.72;;;15.38;;
56242;SDS011;42155;53.096;23.226;2024-03-22T09:43:43;33.80;;;13.82;;
56242;SDS011;42155;53.096;23.226;2024-03-22T09:45:49;37.00;;;14.48;;
56242;SDS011;42155;53.096;23.226;2024-03-22T09:47:49;38.50;;;15.30;;
56242;SDS011;42155;53.096;23.226;2024-03-22T09:49:51;38.72;;;15.48;;
56242;SDS011;42155;53.096;23.226;2024-03-22T09:51:52;35.70;;;14.80;;
56242;SDS011;42155;53.096;23.226;2024-03-22T09:53:52;37.25;;;15.82;;
56242;SDS011;42155;53.096;23.226;2024-03-22T09:55:53;34.50;;;14.50;;
56242;SDS011;42155;53.096;23.226;2024-03-22T09:57:58;36.78;;;14.45;;
56242;SDS011;42155;53.096;23.226;2024-03-22T09:59:58;34.40;;;14.60;;
56242;SDS011;42155;53.096;23.226;2024-03-22T10:01:59;32.35;;;13.77;;
56242;SDS011;42155;53.096;23.226;2024-03-22T10:04:02;41.33;;;15.52;;
56242;SDS011;42155;53.096;23.226;2024-03-22T10:06:03;34.10;;;15.25;;
56242;SDS011;42155;53.096;23.226;2024-03-22T10:08:04;40.10;;;15.25;;
56242;SDS011;42155;53.096;23.226;2024-03-22T10:10:05;35.17;;;15.32;;
56242;SDS011;42155;53.096;23.226;2024-03-22T10:12:05;34.97;;;13.80;;
56242;SDS011;42155;53.096;23.226;2024-03-22T10:14:06;30.85;;;14.27;;
56242;SDS011;42155;53.096;23.226;2024-03-22T10:16:06;34.33;;;14.68;;
56242;SDS011;42155;53.096;23.226;2024-03-22T10:18:06;34.67;;;14.07;;
56242;SDS011;42155;53.096;23.226;2024-03-22T10:20:07;33.60;;;14.25;;
56242;SDS011;42155;53.096;23.226;2024-03-22T10:22:08;38.03;;;15.15;;
56242;SDS011;42155;53.096;23.226;2024-03-22T10:24:08;34.10;;;14.15;;
56242;SDS011;42155;53.096;23.226;2024-03-22T10:26:08;30.60;;;13.55;;
56242;SDS011;42155;53.096;23.226;2024-03-22T10:28:09;28.42;;;12.73;;
56242;SDS011;42155;53.096;23.226;2024-03-22T10:30:09;25.52;;;11.23;;
56242;SDS011;42155;53.096;23.226;2024-03-22T10:32:12;23.77;;;9.80;;
56242;SDS011;42155;53.096;23.226;2024-03-22T10:34:12;20.42;;;8.77;;
56242;SDS011;42155;53.096;23.226;2024-03-22T10:36:14;24.10;;;10.27;;
56242;SDS011;42155;53.096;23.226;2024-03-22T10:38:16;20.60;;;9.30;;
56242;SDS011;42155;53.096;23.226;2024-03-22T10:40:19;20.40;;;9.40;;
56242;SDS011;42155;53.096;23.226;2024-03-22T10:42:20;23.23;;;9.65;;
56242;SDS011;42155;53.096;23.226;2024-03-22T10:44:21;22.92;;;9.80;;
56242;SDS011;42155;53.096;23.226;2024-03-22T10:46:21;24.27;;;10.90;;
56242;SDS011;42155;53.096;23.226;2024-03-22T10:48:29;26.00;;;11.55;;
56242;SDS011;42155;53.096;23.226;2024-03-22T10:50:31;26.00;;;11.13;;
56242;SDS011;42155;53.096;23.226;2024-03-22T10:52:40;24.05;;;10.73;;
56242;SDS011;42155;53.096;23.226;2024-03-22T10:54:46;23.15;;;10.30;;
56242;SDS011;42155;53.096;23.226;2024-03-22T10:56:48;23.10;;;10.05;;
56242;SDS011;42155;53.096;23.226;2024-03-22T10:58:50;24.40;;;10.60;;
56242;SDS011;42155;53.096;23.226;2024-03-22T11:00:51;23.23;;;10.43;;
56242;SDS011;42155;53.096;23.226;2024-03-22T11:02:53;23.30;;;10.20;;
56242;SDS011;42155;53.096;23.226;2024-03-22T11:04:56;23.45;;;10.98;;
56242;SDS011;42155;53.096;23.226;2024-03-22T11:06:56;24.42;;;11.02;;
56242;SDS011;42155;53.096;23.226;2024-03-22T11:08:59;26.40;;;11.00;;
56242;SDS011;42155;53.096;23.226;2024-03-22T11:11:09;28.25;;;11.27;;
56242;SDS011;42155;53.096;23.226;2024-03-22T11:13:10;26.73;;;11.15;;
56242;SDS011;42155;53.096;23.226;2024-03-22T11:15:10;26.83;;;11.07;;
56242;SDS011;42155;53.096;23.226;2024-03-22T11:17:11;33.53;;;12.50;;
56242;SDS011;42155;53.096;23.226;2024-03-22T11:19:11;25.75;;;11.18;;
56242;SDS011;42155;53.096;23.226;2024-03-22T11:21:11;30.42;;;12.18;;
56242;SDS011;42155;53.096;23.226;2024-03-22T11:23:12;25.75;;;12.23;;
56242;SDS011;42155;53.096;23.226;2024-03-22T11:25:12;28.33;;;11.32;;
56242;SDS011;42155;53.096;23.226;2024-03-22T11:27:13;30.05;;;11.57;;
56242;SDS011;42155;53.096;23.226;2024-03-22T11:29:14;30.05;;;12.88;;
56242;SDS011;42155;53.096;23.226;2024-03-22T11:31:14;28.23;;;12.25;;
56242;SDS011;42155;53.096;23.226;2024-03-22T11:33:15;33.22;;;15.00;;
56242;SDS011;42155;53.096;23.226;2024-03-22T11:35:15;33.67;;;14.10;;